Time;durP1;ratioP1;P1;durP2;ratioP2;P2;SDS_P1;SDS_P2;PMS_P1;PMS_P2;Temp;Humidity;BMP_temperature;BMP_pressure;BME280_temperature;BME280_humidity;BME280_pressure;Samples;Min_cycle;Max_cycle;Signal;HPM_P1;HPM_P2
2021/12/26 00:00:19;;;;;;;7.90;2.03;;;-6.30;99.90;;;;;;4951547;28;169389;-74
2021/12/26 00:02:45;;;;;;;7.90;2.30;;;-6.30;99.90;;;;;;4965015;28;20061;-74
2021/12/26 00:05:12;;;;;;;9.47;2.37;;;-6.20;99.90;;;;;;4935482;28;129408;-74
2021/12/26 00:07:39;;;;;;;9.37;2.10;;;-6.30;99.90;;;;;;4960999;28;20073;-74
2021/12/26 00:10:09;;;;;;;8.80;1.97;;;-6.20;99.90;;;;;;4971630;28;143091;-74
2021/12/26 00:12:35;;;;;;;7.83;2.10;;;-6.20;99.90;;;;;;4962730;28;20081;-74
2021/12/26 00:15:03;;;;;;;7.97;2.00;;;-6.30;99.90;;;;;;4955361;28;94025;-74
2021/12/26 00:17:29;;;;;;;9.17;2.10;;;-6.30;99.90;;;;;;4960475;28;20059;-74
2021/12/26 00:19:55;;;;;;;8.17;2.27;;;-6.30;99.90;;;;;;4963116;28;54797;-73
2021/12/26 00:22:21;;;;;;;8.43;2.10;;;-6.30;99.90;;;;;;4962655;28;20717;-74
2021/12/26 00:24:48;;;;;;;9.07;2.30;;;-6.30;99.90;;;;;;4940505;28;203871;-74
2021/12/26 00:27:15;;;;;;;8.80;2.00;;;-6.30;99.90;;;;;;4970544;28;20055;-73
2021/12/26 00:29:41;;;;;;;7.97;2.27;;;-6.40;99.90;;;;;;4955700;28;278136;-73
2021/12/26 00:32:08;;;;;;;8.90;1.80;;;-6.40;99.90;;;;;;4965936;28;20047;-73
2021/12/26 00:34:35;;;;;;;9.33;1.93;;;-6.40;99.90;;;;;;4954985;28;269108;-75
2021/12/26 00:37:01;;;;;;;8.23;2.03;;;-6.30;99.90;;;;;;4981729;28;20059;-74
2021/12/26 00:39:27;;;;;;;9.07;2.10;;;-6.30;99.90;;;;;;4954382;28;260178;-73
2021/12/26 00:41:53;;;;;;;7.30;2.00;;;-6.30;99.90;;;;;;4987088;28;20061;-74
2021/12/26 00:44:19;;;;;;;10.27;2.10;;;-6.40;99.90;;;;;;4968536;28;269096;-74
2021/12/26 00:46:46;;;;;;;8.83;2.17;;;-6.40;99.90;;;;;;4986434;28;20054;-73
2021/12/26 00:49:12;;;;;;;6.70;1.73;;;-6.40;99.90;;;;;;4993273;28;20793;-74
2021/12/26 00:51:38;;;;;;;8.10;1.80;;;-6.40;99.90;;;;;;4971811;28;247922;-73
2021/12/26 00:54:04;;;;;;;7.83;1.90;;;-6.40;99.90;;;;;;4987053;28;20511;-73
2021/12/26 00:56:31;;;;;;;7.17;2.20;;;-6.40;99.90;;;;;;4984657;28;269474;-74
2021/12/26 00:58:57;;;;;;;9.87;2.40;;;-6.40;99.90;;;;;;4991416;28;20051;-72
2021/12/26 01:01:24;;;;;;;8.97;2.63;;;-6.50;99.90;;;;;;4977423;28;102522;-73
2021/12/26 01:03:50;;;;;;;9.43;2.37;;;-6.50;99.90;;;;;;4987985;28;20454;-75
2021/12/26 01:06:16;;;;;;;8.47;2.20;;;-6.50;99.90;;;;;;4961432;28;137101;-74
2021/12/26 01:08:43;;;;;;;12.07;2.30;;;-6.50;99.90;;;;;;4986895;28;20065;-74
2021/12/26 01:11:21;;;;;;;7.53;1.87;;;-6.50;99.90;;;;;;4968632;28;126425;-74
2021/12/26 01:13:49;;;;;;;7.70;2.17;;;-6.50;99.90;;;;;;4983864;28;20080;-74
2021/12/26 01:16:16;;;;;;;9.53;2.20;;;-6.50;99.90;;;;;;4961728;28;31863;-73
2021/12/26 01:18:51;;;;;;;8.37;2.10;;;-6.50;99.90;;;;;;4986026;28;20435;-73
2021/12/26 01:21:25;;;;;;;11.53;2.20;;;-6.50;99.90;;;;;;4970218;28;88880;-73
2021/12/26 01:23:54;;;;;;;8.67;2.00;;;-6.50;99.90;;;;;;4986779;28;20057;-72
2021/12/26 01:26:21;;;;;;;7.63;2.10;;;-6.50;99.90;;;;;;4974652;28;59456;-74
2021/12/26 01:28:47;;;;;;;9.30;2.10;;;-6.60;99.90;;;;;;4988044;28;20527;-73
2021/12/26 01:31:19;;;;;;;7.30;1.93;;;-6.60;99.90;;;;;;4983705;28;276215;-74
2021/12/26 01:33:51;;;;;;;8.23;2.13;;;-6.50;99.90;;;;;;4986688;28;20057;-74
2021/12/26 01:36:17;;;;;;;6.90;1.87;;;-6.60;99.90;;;;;;4976927;28;48164;-74
2021/12/26 01:38:44;;;;;;;7.77;1.70;;;-6.60;99.90;;;;;;4986778;28;20667;-73
2021/12/26 01:41:11;;;;;;;8.40;2.17;;;-6.60;99.90;;;;;;4966789;28;252154;-74
2021/12/26 01:43:40;;;;;;;8.23;2.20;;;-6.60;99.90;;;;;;4980577;28;20507;-74
2021/12/26 01:46:07;;;;;;;7.97;2.40;;;-6.60;99.90;;;;;;4967579;28;225117;-74
2021/12/26 01:48:34;;;;;;;8.23;2.23;;;-6.60;99.90;;;;;;4984493;28;20148;-73
2021/12/26 01:51:00;;;;;;;10.63;2.07;;;-6.60;99.90;;;;;;4980691;28;277348;-74
2021/12/26 01:53:35;;;;;;;9.30;1.90;;;-6.60;99.90;;;;;;4983857;28;20046;-75
2021/12/26 01:56:03;;;;;;;9.00;1.97;;;-6.60;99.90;;;;;;4964943;28;252105;-74
2021/12/26 01:58:30;;;;;;;8.57;1.77;;;-6.60;99.90;;;;;;4983850;28;20061;-74
2021/12/26 02:01:00;;;;;;;9.47;2.10;;;-6.60;99.90;;;;;;4978262;28;265438;-74
2021/12/26 02:03:27;;;;;;;13.30;2.33;;;-6.60;99.90;;;;;;4998673;28;20110;-74
2021/12/26 02:05:53;;;;;;;8.07;1.90;;;-6.60;99.90;;;;;;4959910;28;258461;-73
2021/12/26 02:08:20;;;;;;;7.13;1.80;;;-6.70;99.90;;;;;;4981092;28;20050;-74
2021/12/26 02:10:46;;;;;;;8.17;1.83;;;-6.60;99.90;;;;;;4974736;28;146117;-74
2021/12/26 02:13:13;;;;;;;7.70;2.00;;;-6.60;99.90;;;;;;4998200;28;20058;-73
2021/12/26 02:15:39;;;;;;;6.90;1.80;;;-6.70;99.90;;;;;;4976428;28;263852;-72
2021/12/26 02:18:07;;;;;;;8.90;1.73;;;-6.70;99.90;;;;;;4987169;28;20046;-73
2021/12/26 02:23:54;;;;;;;7.50;1.97;;;-6.70;99.90;;;;;;4981994;28;20051;-73
2021/12/26 02:28:44;;;;;;;8.87;1.70;;;-6.70;99.90;;;;;;4985213;28;20064;-74
2021/12/26 02:31:11;;;;;;;6.93;1.60;;;-6.70;99.90;;;;;;4970195;28;171383;-73
2021/12/26 02:33:39;;;;;;;7.67;1.83;;;-6.80;99.90;;;;;;4982319;28;20054;-74
2021/12/26 02:36:05;;;;;;;7.40;1.87;;;-6.80;99.90;;;;;;4968737;28;179048;-73
2021/12/26 02:38:33;;;;;;;7.77;1.70;;;-6.80;99.90;;;;;;4986033;28;20046;-74
2021/12/26 02:41:00;;;;;;;8.33;1.80;;;-6.80;99.90;;;;;;4975502;28;49011;-73
2021/12/26 02:43:29;;;;;;;6.67;1.70;;;-6.80;99.90;;;;;;4982704;28;20050;-73
2021/12/26 02:45:56;;;;;;;7.43;1.80;;;-6.80;99.90;;;;;;4977297;28;20046;-73
2021/12/26 02:48:22;;;;;;;7.73;1.70;;;-6.80;99.90;;;;;;4982803;28;20073;-74
2021/12/26 02:50:56;;;;;;;8.33;2.03;;;-6.80;99.90;;;;;;4974160;28;253893;-72
2021/12/26 02:53:22;;;;;;;9.50;1.93;;;-6.80;99.70;;;;;;4984275;28;20053;-73
2021/12/26 02:55:53;;;;;;;9.17;2.10;;;-6.80;99.50;;;;;;4956740;28;240880;-73
2021/12/26 02:58:20;;;;;;;7.80;2.08;;;-6.80;99.50;;;;;;4980608;28;20057;-73
2021/12/26 03:00:54;;;;;;;7.30;1.90;;;-6.80;99.50;;;;;;4962903;28;56342;-74
2021/12/26 03:03:20;;;;;;;8.77;1.90;;;-6.80;99.40;;;;;;4981254;28;20054;-73
2021/12/26 03:05:55;;;;;;;7.63;1.80;;;-6.80;99.30;;;;;;4957838;28;125143;-73
2021/12/26 03:08:21;;;;;;;8.10;1.80;;;-6.80;99.30;;;;;;4984228;28;20542;-73
2021/12/26 03:10:47;;;;;;;8.33;2.07;;;-6.90;99.20;;;;;;4966468;28;208581;-73
2021/12/26 03:13:14;;;;;;;10.43;2.40;;;-6.90;99.30;;;;;;4987861;28;20061;-73
2021/12/26 03:15:42;;;;;;;7.40;1.93;;;-6.90;99.30;;;;;;4971233;28;181510;-74
2021/12/26 03:18:09;;;;;;;9.37;1.93;;;-6.90;99.30;;;;;;4987109;28;20574;-73
2021/12/26 03:20:39;;;;;;;7.47;1.93;;;-6.90;99.30;;;;;;4963139;28;55167;-73
2021/12/26 03:23:07;;;;;;;8.37;1.80;;;-6.90;99.20;;;;;;4994843;28;20047;-73
2021/12/26 03:25:34;;;;;;;8.43;1.67;;;-6.90;99.20;;;;;;4975046;28;53787;-74
2021/12/26 03:28:02;;;;;;;10.53;2.20;;;-6.90;99.20;;;;;;4982318;28;20053;-73
2021/12/26 03:30:29;;;;;;;7.13;1.77;;;-6.90;99.20;;;;;;4974907;28;259121;-72
2021/12/26 03:32:59;;;;;;;6.50;1.70;;;-6.90;99.20;;;;;;4995327;28;20054;-72
2021/12/26 03:35:28;;;;;;;7.50;1.70;;;-6.90;99.30;;;;;;4972898;28;94750;-72
2021/12/26 03:37:55;;;;;;;7.90;1.90;;;-6.90;99.30;;;;;;4993710;28;20308;-73
2021/12/26 03:40:21;;;;;;;8.03;1.93;;;-6.90;99.20;;;;;;4977129;28;267488;-74
2021/12/26 03:42:51;;;;;;;10.67;2.00;;;-6.90;99.10;;;;;;4984386;28;20420;-73
2021/12/26 03:45:18;;;;;;;6.73;1.67;;;-6.90;99.20;;;;;;4971659;28;246801;-73
2021/12/26 03:47:48;;;;;;;8.13;2.00;;;-6.90;99.00;;;;;;4986305;28;20046;-73
2021/12/26 03:50:19;;;;;;;8.90;2.10;;;-7.00;98.90;;;;;;4969962;28;252082;-73
2021/12/26 03:52:47;;;;;;;7.90;2.10;;;-6.90;98.90;;;;;;5001026;28;20153;-73
2021/12/26 03:55:14;;;;;;;8.90;1.97;;;-6.90;98.80;;;;;;4989588;28;217006;-73
2021/12/26 03:57:40;;;;;;;7.60;2.03;;;-6.90;98.80;;;;;;4979135;28;20077;-73
2021/12/26 04:00:08;;;;;;;9.27;3.53;;;-6.90;98.70;;;;;;4977619;28;23062;-74
2021/12/26 04:02:34;;;;;;;6.80;1.80;;;-7.00;98.70;;;;;;4983913;28;20053;-72
2021/12/26 04:05:00;;;;;;;8.07;1.90;;;-7.00;98.70;;;;;;4956333;28;218872;-74
2021/12/26 04:07:27;;;;;;;7.67;1.73;;;-7.00;98.70;;;;;;4994482;28;20058;-73
2021/12/26 04:09:53;;;;;;;8.20;2.03;;;-7.00;98.70;;;;;;4975965;28;80028;-73
2021/12/26 04:12:19;;;;;;;9.53;1.83;;;-7.00;98.70;;;;;;4994721;28;20057;-74
2021/12/26 04:14:45;;;;;;;8.40;2.00;;;-7.00;98.70;;;;;;4974221;28;258910;-73
2021/12/26 04:17:11;;;;;;;9.27;2.03;;;-7.00;98.70;;;;;;4980334;28;20076;-72
2021/12/26 04:19:37;;;;;;;6.80;1.87;;;-7.00;98.80;;;;;;4968721;28;253015;-72
2021/12/26 04:22:04;;;;;;;8.90;1.80;;;-7.10;98.80;;;;;;4981229;28;20051;-73
2021/12/26 04:24:30;;;;;;;6.23;1.60;;;-7.00;98.70;;;;;;4966630;28;256353;-73
2021/12/26 04:26:57;;;;;;;7.00;1.60;;;-7.00;98.70;;;;;;4990645;28;20052;-73
2021/12/26 04:29:23;;;;;;;8.27;1.77;;;-7.00;98.70;;;;;;4963582;28;253860;-73
2021/12/26 04:31:49;;;;;;;12.53;2.20;;;-7.10;98.70;;;;;;4970467;28;20050;-73
2021/12/26 04:34:15;;;;;;;7.17;1.90;;;-7.10;98.70;;;;;;4971074;28;255455;-72
2021/12/26 04:36:41;;;;;;;8.77;1.97;;;-7.10;98.70;;;;;;4982735;28;20063;-73
2021/12/26 04:39:07;;;;;;;8.10;2.00;;;-7.10;98.70;;;;;;4985216;28;20240;-73
2021/12/26 04:41:34;;;;;;;7.87;1.93;;;-7.10;98.70;;;;;;4978971;28;257821;-71
2021/12/26 04:44:00;;;;;;;8.60;1.73;;;-7.20;98.70;;;;;;4999556;28;20165;-74
2021/12/26 04:46:26;;;;;;;6.50;1.70;;;-7.20;98.80;;;;;;4951731;28;209306;-74
2021/12/26 04:48:52;;;;;;;8.07;1.90;;;-7.20;98.80;;;;;;4966701;28;20049;-73
2021/12/26 04:51:19;;;;;;;9.10;2.57;;;-7.20;98.80;;;;;;4966575;28;217641;-72
2021/12/26 04:53:45;;;;;;;7.87;2.00;;;-7.20;98.80;;;;;;4965381;28;20062;-73
2021/12/26 04:56:11;;;;;;;7.93;2.10;;;-7.20;98.80;;;;;;4965447;28;254996;-72
2021/12/26 04:58:38;;;;;;;9.07;2.00;;;-7.20;99.00;;;;;;4969662;28;20053;-73
2021/12/26 05:01:04;;;;;;;7.10;2.17;;;-7.20;98.90;;;;;;4949630;28;124133;-73
2021/12/26 05:03:31;;;;;;;7.43;2.00;;;-7.20;98.90;;;;;;4967851;28;20047;-73
2021/12/26 05:05:57;;;;;;;7.07;1.77;;;-7.20;98.90;;;;;;4950965;28;139963;-74
2021/12/26 05:08:23;;;;;;;9.57;2.23;;;-7.10;98.90;;;;;;4967745;28;20057;-73
2021/12/26 05:10:50;;;;;;;8.97;1.80;;;-7.10;98.90;;;;;;4977091;28;256406;-73
2021/12/26 05:13:16;;;;;;;8.47;2.10;;;-7.20;98.80;;;;;;4986638;28;20065;-72
2021/12/26 05:15:43;;;;;;;7.80;2.10;;;-7.10;98.80;;;;;;4961669;28;184945;-72
2021/12/26 05:18:09;;;;;;;9.60;2.20;;;-7.20;98.80;;;;;;4980037;28;20054;-73
2021/12/26 05:20:36;;;;;;;8.13;2.17;;;-7.20;98.80;;;;;;4971727;28;79306;-73
2021/12/26 05:23:04;;;;;;;7.00;1.93;;;-7.20;98.80;;;;;;4984883;28;21824;-74
2021/12/26 05:25:30;;;;;;;7.97;2.00;;;-7.20;98.70;;;;;;4977102;28;271118;-73
2021/12/26 05:27:57;;;;;;;9.47;2.40;;;-7.10;98.70;;;;;;4994764;28;20041;-73
2021/12/26 05:30:24;;;;;;;8.67;1.80;;;-7.10;98.60;;;;;;4973841;28;87576;-73
2021/12/26 05:32:51;;;;;;;9.30;2.30;;;-7.10;98.60;;;;;;4982386;28;20423;-73
2021/12/26 05:35:18;;;;;;;8.10;2.20;;;-7.10;98.60;;;;;;4971667;28;273298;-72
2021/12/26 05:37:45;;;;;;;10.67;2.50;;;-7.10;98.60;;;;;;4983900;28;20053;-73
2021/12/26 05:40:13;;;;;;;7.40;2.30;;;-7.10;98.60;;;;;;4967704;28;110753;-73
2021/12/26 05:42:39;;;;;;;8.90;2.50;;;-7.10;98.50;;;;;;4967092;28;20058;-72
2021/12/26 05:45:08;;;;;;;8.97;2.60;;;-7.10;98.50;;;;;;4949462;28;201461;-73
2021/12/26 05:47:34;;;;;;;10.40;2.50;;;-7.10;98.60;;;;;;4958638;28;20046;-72
2021/12/26 05:50:03;;;;;;;8.07;2.40;;;-7.10;98.50;;;;;;4952075;28;246699;-73
2021/12/26 05:52:29;;;;;;;8.77;2.50;;;-7.10;98.50;;;;;;4984992;28;20415;-74
2021/12/26 05:54:56;;;;;;;10.60;2.70;;;-7.10;98.40;;;;;;4967389;28;244041;-73
2021/12/26 05:57:23;;;;;;;8.37;2.40;;;-7.10;98.50;;;;;;4986771;28;20046;-73
2021/12/26 05:59:49;;;;;;;8.60;2.53;;;-7.10;98.40;;;;;;4979261;28;74597;-72
2021/12/26 06:02:15;;;;;;;9.47;2.77;;;-7.10;98.40;;;;;;4979188;28;20057;-72
2021/12/26 06:04:41;;;;;;;10.53;2.67;;;-7.10;98.40;;;;;;4956085;28;117418;-72
2021/12/26 06:07:08;;;;;;;9.63;2.53;;;-7.00;98.40;;;;;;4975510;28;20077;-72
2021/12/26 06:09:34;;;;;;;10.30;2.77;;;-7.10;98.40;;;;;;4978767;28;273834;-72
2021/12/26 06:12:02;;;;;;;12.03;2.80;;;-7.00;98.40;;;;;;4990273;28;20045;-73
2021/12/26 06:14:28;;;;;;;9.83;2.80;;;-7.00;98.40;;;;;;4973153;28;256667;-72
2021/12/26 06:16:54;;;;;;;10.57;2.80;;;-7.00;98.40;;;;;;4984725;28;20487;-73
2021/12/26 06:19:20;;;;;;;9.20;2.90;;;-7.00;98.40;;;;;;4970544;28;263820;-72
2021/12/26 06:21:47;;;;;;;10.37;3.00;;;-7.00;98.30;;;;;;4985502;28;20387;-72
2021/12/26 06:24:13;;;;;;;10.47;2.80;;;-7.00;98.40;;;;;;4986668;28;20746;-73
2021/12/26 06:26:39;;;;;;;9.37;3.00;;;-7.00;98.40;;;;;;4972623;28;60047;-72
2021/12/26 06:29:05;;;;;;;8.33;2.70;;;-7.00;98.30;;;;;;4968537;28;20054;-73
2021/12/26 06:31:31;;;;;;;9.30;3.00;;;-7.00;98.40;;;;;;4967790;28;236464;-73
2021/12/26 06:33:57;;;;;;;9.17;2.80;;;-7.00;98.30;;;;;;4998720;28;20047;-72
2021/12/26 06:36:23;;;;;;;9.70;3.23;;;-7.00;98.30;;;;;;4979443;28;96172;-72
2021/12/26 06:38:50;;;;;;;9.50;3.20;;;-7.00;98.30;;;;;;4989561;28;20054;-73
2021/12/26 06:41:16;;;;;;;9.00;3.07;;;-7.00;98.30;;;;;;4983611;28;262179;-73
2021/12/26 06:43:43;;;;;;;9.93;3.20;;;-7.00;98.40;;;;;;4997863;28;20058;-72
2021/12/26 06:46:10;;;;;;;13.93;3.67;;;-7.00;98.40;;;;;;4976671;28;70797;-72
2021/12/26 06:48:39;;;;;;;11.47;3.37;;;-7.10;98.50;;;;;;4980288;28;20061;-72
2021/12/26 06:51:06;;;;;;;10.70;3.03;;;-7.10;98.60;;;;;;4954689;28;143002;-73
2021/12/26 06:53:32;;;;;;;10.07;3.50;;;-7.10;98.70;;;;;;4981562;28;20392;-73
2021/12/26 06:55:58;;;;;;;9.03;3.50;;;-7.10;98.70;;;;;;4955668;28;169462;-74
2021/12/26 06:58:24;;;;;;;12.40;3.80;;;-7.10;98.80;;;;;;4981340;28;20549;-73
2021/12/26 07:00:51;;;;;;;9.27;3.10;;;-7.10;98.90;;;;;;4958259;28;249890;-73
2021/12/26 07:03:17;;;;;;;10.60;3.80;;;-7.10;98.90;;;;;;4979316;28;20054;-73
2021/12/26 07:05:43;;;;;;;10.17;3.70;;;-7.10;98.80;;;;;;4949107;28;151443;-73
2021/12/26 07:08:10;;;;;;;10.67;3.80;;;-7.00;98.70;;;;;;4977780;28;20046;-72
2021/12/26 07:10:36;;;;;;;11.27;3.63;;;-7.10;98.70;;;;;;4964665;28;252078;-72
2021/12/26 07:13:02;;;;;;;10.33;3.70;;;-7.00;98.70;;;;;;4993788;28;20427;-73
2021/12/26 07:15:29;;;;;;;10.97;3.70;;;-7.00;98.70;;;;;;4975623;28;265664;-73
2021/12/26 07:17:55;;;;;;;9.93;3.73;;;-7.00;98.60;;;;;;4984353;28;20069;-72
2021/12/26 07:20:21;;;;;;;13.73;4.10;;;-7.10;98.60;;;;;;4976972;28;157721;-73
2021/12/26 07:22:47;;;;;;;10.60;3.70;;;-7.10;98.60;;;;;;4986698;28;20054;-72
2021/12/26 07:25:14;;;;;;;12.00;3.73;;;-7.00;98.50;;;;;;4971677;28;166375;-73
2021/12/26 07:27:40;;;;;;;11.03;3.57;;;-7.00;98.50;;;;;;4982029;28;20054;-73
2021/12/26 07:30:07;;;;;;;11.87;4.20;;;-7.00;98.60;;;;;;4976241;28;106979;-73
2021/12/26 07:32:34;;;;;;;11.27;3.90;;;-7.00;98.60;;;;;;4963208;28;20046;-73
2021/12/26 07:35:00;;;;;;;10.50;3.83;;;-7.10;98.50;;;;;;4974458;28;20061;-73
2021/12/26 07:37:27;;;;;;;11.37;4.10;;;-7.00;98.50;;;;;;4992293;28;20226;-73
2021/12/26 07:39:54;;;;;;;12.20;4.13;;;-7.00;98.50;;;;;;4976755;28;20061;-72
2021/12/26 07:42:21;;;;;;;11.00;3.83;;;-7.00;98.50;;;;;;4991417;28;20074;-73
2021/12/26 07:44:47;;;;;;;10.50;3.97;;;-7.00;98.40;;;;;;4968778;28;257791;-72
2021/12/26 07:47:13;;;;;;;9.50;3.73;;;-7.00;98.40;;;;;;4994188;28;20035;-73
2021/12/26 07:49:40;;;;;;;12.47;4.03;;;-6.90;98.50;;;;;;4978040;28;252385;-73
2021/12/26 07:52:15;;;;;;;12.40;4.00;;;-6.90;98.40;;;;;;4963979;28;20042;-72
2021/12/26 07:54:43;;;;;;;11.27;4.10;;;-6.90;98.50;;;;;;4969424;28;50155;-72
2021/12/26 07:57:09;;;;;;;12.73;4.33;;;-6.90;98.40;;;;;;4969794;28;20054;-73
2021/12/26 07:59:35;;;;;;;11.97;4.40;;;-6.90;98.50;;;;;;4963070;28;267744;-72
2021/12/26 08:02:02;;;;;;;11.77;4.27;;;-6.80;98.40;;;;;;4978325;28;20078;-73
2021/12/26 08:04:28;;;;;;;12.27;4.27;;;-6.80;98.40;;;;;;4951505;28;261537;-73
2021/12/26 08:06:55;;;;;;;10.77;4.00;;;-6.80;98.40;;;;;;4990802;28;20046;-73
2021/12/26 08:09:21;;;;;;;12.27;4.20;;;-6.80;98.30;;;;;;4965877;28;268206;-72
2021/12/26 08:11:47;;;;;;;11.70;4.17;;;-6.80;98.20;;;;;;5001646;28;20049;-72
2021/12/26 08:14:13;;;;;;;11.00;4.07;;;-6.80;98.20;;;;;;4981003;28;20401;-73
2021/12/26 08:16:40;;;;;;;13.00;4.30;;;-6.70;98.20;;;;;;4944264;28;122878;-73
2021/12/26 08:19:07;;;;;;;11.40;3.53;;;-6.70;98.00;;;;;;4963792;28;20514;-73
2021/12/26 08:21:33;;;;;;;10.97;4.30;;;-6.70;98.10;;;;;;4961343;28;218539;-73
2021/12/26 08:24:00;;;;;;;11.07;4.33;;;-6.60;98.00;;;;;;4986707;28;20535;-73
2021/12/26 08:26:26;;;;;;;11.87;4.50;;;-6.60;97.80;;;;;;4982936;28;252914;-73
2021/12/26 08:28:52;;;;;;;10.57;4.00;;;-6.50;97.70;;;;;;4984833;28;20503;-74
2021/12/26 08:31:20;;;;;;;11.57;3.93;;;-6.50;97.80;;;;;;4968860;28;256330;-72
2021/12/26 08:33:47;;;;;;;13.33;4.40;;;-6.50;97.50;;;;;;5000959;28;20069;-72
2021/12/26 08:36:13;;;;;;;12.40;4.30;;;-6.50;97.60;;;;;;4973315;28;112295;-72
2021/12/26 08:38:40;;;;;;;12.77;4.10;;;-6.40;97.50;;;;;;5003482;28;20747;-72
2021/12/26 08:41:06;;;;;;;13.17;4.60;;;-6.40;97.30;;;;;;4974089;28;131098;-72
2021/12/26 08:43:33;;;;;;;12.00;4.30;;;-6.40;97.30;;;;;;4981444;28;20061;-72
2021/12/26 08:45:59;;;;;;;11.97;4.43;;;-6.30;97.20;;;;;;4968506;28;277116;-72
2021/12/26 08:48:25;;;;;;;11.37;4.33;;;-6.30;97.10;;;;;;4989539;28;20050;-73
2021/12/26 08:50:55;;;;;;;12.03;4.53;;;-6.20;97.20;;;;;;4979530;28;258757;-73
2021/12/26 08:53:29;;;;;;;11.33;4.33;;;-6.20;97.10;;;;;;4988312;28;20160;-73
2021/12/26 08:55:57;;;;;;;12.50;4.67;;;-6.20;96.80;;;;;;4973912;28;127925;-73
2021/12/26 08:58:24;;;;;;;11.70;4.40;;;-6.10;96.60;;;;;;4985800;28;20447;-71
2021/12/26 09:00:50;;;;;;;9.90;3.80;;;-6.10;96.90;;;;;;4970387;28;180144;-72
2021/12/26 09:03:16;;;;;;;12.77;4.50;;;-6.00;96.90;;;;;;5001328;28;20062;-72
2021/12/26 09:05:42;;;;;;;11.73;4.27;;;-6.00;96.70;;;;;;4963428;28;263408;-72
2021/12/26 09:08:10;;;;;;;10.93;4.20;;;-5.90;96.60;;;;;;4986272;28;20121;-73
2021/12/26 09:10:41;;;;;;;12.50;4.40;;;-5.90;96.30;;;;;;4975038;28;130943;-72
2021/12/26 09:13:07;;;;;;;11.97;4.13;;;-5.80;96.10;;;;;;4986566;28;20562;-72
2021/12/26 09:15:34;;;;;;;10.30;4.60;;;-5.80;95.60;;;;;;4971054;28;101567;-73
2021/12/26 09:18:00;;;;;;;11.90;4.30;;;-5.70;95.80;;;;;;4988139;28;20058;-72
2021/12/26 09:20:27;;;;;;;11.80;4.33;;;-5.70;96.10;;;;;;4968584;28;256389;-73
2021/12/26 09:22:54;;;;;;;12.40;4.60;;;-5.60;96.20;;;;;;4979441;28;20050;-73
2021/12/26 09:25:20;;;;;;;10.00;4.10;;;-5.60;96.20;;;;;;4979588;28;20049;-73
2021/12/26 09:27:46;;;;;;;11.83;4.47;;;-5.60;96.40;;;;;;4993633;28;20439;-72
2021/12/26 09:30:14;;;;;;;11.47;4.47;;;-5.50;96.30;;;;;;4969479;28;260633;-73
2021/12/26 09:32:41;;;;;;;11.80;4.53;;;-5.50;96.30;;;;;;4977600;28;20059;-72
2021/12/26 09:35:07;;;;;;;11.10;4.37;;;-5.40;96.50;;;;;;4973476;28;25144;-73
2021/12/26 09:37:34;;;;;;;10.30;4.30;;;-5.40;96.20;;;;;;4982933;28;20047;-73
2021/12/26 09:40:00;;;;;;;12.00;4.20;;;-5.30;96.10;;;;;;4972261;28;77026;-72
2021/12/26 09:42:27;;;;;;;10.43;3.80;;;-5.30;96.10;;;;;;4978150;28;20073;-72
2021/12/26 09:44:53;;;;;;;10.63;4.13;;;-5.20;96.30;;;;;;4971492;28;58628;-72
2021/12/26 09:47:20;;;;;;;10.10;4.00;;;-5.20;96.10;;;;;;4973369;28;20627;-72
2021/12/26 09:49:47;;;;;;;11.70;4.10;;;-5.10;95.70;;;;;;4968415;28;63107;-73
2021/12/26 09:52:13;;;;;;;10.97;4.40;;;-5.00;96.10;;;;;;4975028;28;20419;-73
2021/12/26 09:54:39;;;;;;;11.13;4.80;;;-5.00;96.10;;;;;;4966627;28;277548;-72
2021/12/26 09:57:06;;;;;;;11.43;4.13;;;-4.90;96.20;;;;;;4982503;28;20495;-73
2021/12/26 09:59:32;;;;;;;12.57;4.70;;;-4.80;96.10;;;;;;4966822;28;269369;-73
2021/12/26 10:02:08;;;;;;;11.73;4.70;;;-4.80;96.00;;;;;;4978338;28;20086;-72
2021/12/26 10:04:35;;;;;;;11.77;3.93;;;-4.70;96.00;;;;;;4964291;28;250928;-73
2021/12/26 10:07:25;;;;;;;9.67;3.93;;;-4.60;95.50;;;;;;4975959;28;22750;-72
2021/12/26 10:09:53;;;;;;;11.17;4.07;;;-4.60;95.40;;;;;;4971961;28;220998;-71
2021/12/26 10:12:21;;;;;;;10.77;4.37;;;-4.50;95.10;;;;;;4977217;28;20814;-71
2021/12/26 10:14:50;;;;;;;10.70;4.30;;;-4.40;95.00;;;;;;4962669;28;137222;-71
2021/12/26 10:17:26;;;;;;;10.57;3.70;;;-4.30;95.00;;;;;;4981958;28;20059;-72
2021/12/26 10:20:10;;;;;;;10.87;4.17;;;-4.30;94.90;;;;;;4978911;28;225204;-72
2021/12/26 10:22:37;;;;;;;10.07;4.07;;;-4.20;94.60;;;;;;4961243;28;20066;-73
2021/12/26 10:25:14;;;;;;;10.23;4.17;;;-4.10;93.90;;;;;;4946480;28;75821;-72
2021/12/26 10:27:42;;;;;;;12.53;4.43;;;-4.10;94.30;;;;;;4985631;28;20057;-73
2021/12/26 10:30:14;;;;;;;10.30;4.20;;;-4.00;94.20;;;;;;4980651;28;252307;-72
2021/12/26 10:32:41;;;;;;;10.87;4.30;;;-4.00;94.60;;;;;;4964178;28;20511;-73
2021/12/26 10:35:11;;;;;;;10.17;4.33;;;-3.90;94.60;;;;;;4975744;28;33182;-72
2021/12/26 10:37:49;;;;;;;10.20;4.27;;;-3.80;94.40;;;;;;4999445;28;20060;-72
2021/12/26 10:40:24;;;;;;;10.80;4.23;;;-3.80;94.30;;;;;;4973426;28;256848;-77
2021/12/26 10:42:56;;;;;;;9.70;4.00;;;-3.70;94.70;;;;;;4986016;28;20562;-72
2021/12/26 10:45:28;;;;;;;11.33;4.87;;;-3.70;94.80;;;;;;4973283;28;162281;-72
2021/12/26 10:47:57;;;;;;;11.00;4.27;;;-3.60;95.40;;;;;;4992276;28;20042;-72
2021/12/26 10:50:26;;;;;;;12.67;4.20;;;-3.60;95.30;;;;;;4976929;28;104660;-72
2021/12/26 10:52:59;;;;;;;11.03;4.57;;;-3.50;95.50;;;;;;4978286;28;20285;-73
2021/12/26 10:55:38;;;;;;;11.73;4.23;;;-3.50;95.30;;;;;;4967498;28;74109;-72
2021/12/26 10:58:11;;;;;;;11.43;3.80;;;-3.40;95.20;;;;;;4980413;28;20045;-73
2021/12/26 11:00:42;;;;;;;12.63;4.23;;;-3.40;95.10;;;;;;4967074;28;230464;-72
2021/12/26 11:03:24;;;;;;;10.60;3.97;;;-3.30;94.90;;;;;;4984433;28;20054;-72
2021/12/26 11:05:53;;;;;;;12.60;4.50;;;-3.20;95.30;;;;;;4953860;28;191342;-73
2021/12/26 11:08:35;;;;;;;11.13;4.73;;;-3.20;95.30;;;;;;5007164;28;20048;-73
2021/12/26 11:11:10;;;;;;;11.37;4.80;;;-3.10;95.30;;;;;;4969783;28;265684;-73
2021/12/26 11:13:36;;;;;;;12.33;4.90;;;-3.10;95.90;;;;;;4989768;28;20507;-77
2021/12/26 11:16:06;;;;;;;12.13;5.13;;;-3.00;95.80;;;;;;4973293;28;194763;-74
2021/12/26 11:18:34;;;;;;;11.57;4.68;;;-3.00;95.80;;;;;;4986823;28;20082;-74
2021/12/26 11:21:06;;;;;;;11.57;4.40;;;-2.90;95.60;;;;;;4980347;28;257570;-75
2021/12/26 11:23:36;;;;;;;12.25;5.03;;;-2.80;95.80;;;;;;4985832;28;20054;-76
2021/12/26 11:26:08;;;;;;;11.33;4.20;;;-2.70;95.20;;;;;;4957091;28;253259;-74
2021/12/26 11:28:40;;;;;;;11.27;4.50;;;-2.70;95.20;;;;;;4990010;28;20058;-76
2021/12/26 11:31:12;;;;;;;13.07;4.45;;;-2.60;94.90;;;;;;5003885;28;40477;-74
2021/12/26 11:33:39;;;;;;;11.80;4.72;;;-2.60;94.90;;;;;;4995408;28;20507;-72
2021/12/26 11:36:12;;;;;;;11.48;4.38;;;-2.50;94.70;;;;;;4983203;28;161701;-73
2021/12/26 11:38:39;;;;;;;10.30;4.40;;;-2.50;95.10;;;;;;4994008;28;20396;-72
2021/12/26 11:41:12;;;;;;;10.27;4.15;;;-2.40;95.30;;;;;;4984370;28;68732;-73
2021/12/26 11:44:03;;;;;;;12.25;4.40;;;-2.40;95.50;;;;;;4994921;28;20463;-73
2021/12/26 11:46:29;;;;;;;10.10;4.32;;;-2.40;95.50;;;;;;4968525;28;191635;-73
2021/12/26 11:49:37;;;;;;;10.85;4.75;;;-2.30;95.00;;;;;;4995328;28;20529;-73
2021/12/26 11:52:25;;;;;;;12.25;5.20;;;-2.30;95.70;;;;;;4974771;28;20046;-73
2021/12/26 11:55:20;;;;;;;12.18;5.05;;;-2.20;95.60;;;;;;4983529;28;250964;-73
2021/12/26 11:58:11;;;;;;;11.25;4.88;;;-2.10;95.10;;;;;;5002168;28;20418;-72
2021/12/26 12:00:41;;;;;;;11.52;5.00;;;-2.10;95.40;;;;;;4982647;28;252287;-73
2021/12/26 12:03:29;;;;;;;11.50;4.47;;;-2.10;95.60;;;;;;4984127;28;20065;-73
2021/12/26 12:05:56;;;;;;;12.90;4.70;;;-2.00;95.90;;;;;;4971714;28;298919;-72
2021/12/26 12:08:22;;;;;;;12.88;4.65;;;-2.00;95.70;;;;;;4974407;28;20057;-73
2021/12/26 12:10:55;;;;;;;11.32;4.45;;;-1.90;95.60;;;;;;4998682;28;54185;-73
2021/12/26 12:13:27;;;;;;;11.45;4.72;;;-1.90;95.40;;;;;;4991010;28;20050;-73
2021/12/26 12:16:13;;;;;;;12.88;4.57;;;-1.90;95.40;;;;;;4980547;28;263589;-73
2021/12/26 12:19:00;;;;;;;13.63;4.80;;;-1.60;95.30;;;;;;4987303;28;20085;-72
2021/12/26 12:21:33;;;;;;;11.95;4.68;;;0.60;95.10;;;;;;4990077;28;276254;-73
2021/12/26 12:24:09;;;;;;;10.82;4.25;;;2.40;94.60;;;;;;4991178;28;20069;-76
2021/12/26 12:26:39;;;;;;;10.35;4.15;;;3.50;89.60;;;;;;4997573;28;20049;-75
2021/12/26 12:29:05;;;;;;;11.38;4.80;;;4.40;85.10;;;;;;4991990;28;20050;-74
2021/12/26 12:31:32;;;;;;;11.05;5.15;;;4.90;82.70;;;;;;4974135;28;227608;-73
2021/12/26 12:34:06;;;;;;;11.02;5.35;;;5.50;82.20;;;;;;4985706;28;20058;-74
2021/12/26 12:36:34;;;;;;;11.30;4.68;;;6.00;82.30;;;;;;4969737;28;201196;-73
2021/12/26 12:39:14;;;;;;;10.82;4.57;;;6.50;76.90;;;;;;4983732;28;20422;-74
2021/12/26 12:41:44;;;;;;;11.90;4.78;;;6.90;73.10;;;;;;4961059;28;50956;-75
2021/12/26 12:44:29;;;;;;;12.27;4.90;;;7.00;65.20;;;;;;4991293;28;20046;-74
2021/12/26 12:47:03;;;;;;;13.10;4.72;;;7.40;71.90;;;;;;4979284;28;20384;-73
2021/12/26 12:49:45;;;;;;;11.15;4.20;;;7.80;72.60;;;;;;4974320;28;263339;-74